createdAt,value
2022-12-11T07:48:23.390Z,101112.88
2022-12-11T07:50:50.305Z,101111.28
2022-12-11T07:53:17.454Z,101119.06
2022-12-11T07:55:45.629Z,101121.63
2022-12-11T07:58:12.464Z,101125.16
2022-12-11T08:00:39.314Z,101124.22
2022-12-11T08:03:06.084Z,101120.66
2022-12-11T08:05:34.310Z,101127.72
2022-12-11T08:08:01.264Z,101113.75
2022-12-11T08:10:28.133Z,101123.28
2022-12-11T08:12:54.910Z,101125.00
2022-12-11T08:15:22.420Z,101125.00
2022-12-11T08:17:49.223Z,101122.38
2022-12-11T08:20:16.169Z,101118.91
2022-12-11T08:22:44.505Z,101120.53
2022-12-11T08:25:11.962Z,101124.03
2022-12-11T08:27:38.895Z,101132.69
2022-12-11T08:30:07.190Z,101116.19
2022-12-11T08:32:34.634Z,101123.06
2022-12-11T08:35:01.926Z,101121.44
2022-12-11T08:37:37.502Z,101122.09
2022-12-11T08:40:13.552Z,101124.72
2022-12-11T08:42:40.498Z,101131.59
2022-12-11T08:45:08.749Z,101130.81
2022-12-11T08:47:36.689Z,101129.97
2022-12-11T08:50:04.294Z,101122.09
2022-12-11T08:52:31.812Z,101124.81
2022-12-11T08:54:59.029Z,101129.97
2022-12-11T08:57:28.445Z,101133.28
2022-12-11T08:59:55.348Z,101130.63
2022-12-11T09:02:22.278Z,101129.72
2022-12-11T09:04:49.145Z,101128.81
2022-12-11T09:07:16.065Z,101120.94
2022-12-11T09:09:42.875Z,101121.66
2022-12-11T09:12:10.583Z,101117.50
2022-12-11T09:14:38.934Z,101127.81
2022-12-11T09:17:06.189Z,101119.25
2022-12-11T09:19:33.219Z,101119.16
2022-12-11T09:22:00.128Z,101118.28
2022-12-11T09:24:27.216Z,101116.38
2022-12-11T09:26:54.692Z,101110.09
2022-12-11T09:29:21.746Z,101113.53
2022-12-11T09:31:50.403Z,101123.81
2022-12-11T09:34:17.379Z,101115.16
2022-12-11T09:36:44.469Z,101114.31
2022-12-11T09:39:13.669Z,101115.25
2022-12-11T09:41:48.116Z,101108.19
2022-12-11T09:44:31.475Z,101119.56
2022-12-11T09:47:00.558Z,101110.72
2022-12-11T09:49:34.167Z,101115.94
2022-12-11T09:52:10.500Z,101114.19
2022-12-11T09:54:41.478Z,101115.84
2022-12-11T09:57:19.110Z,101114.97
2022-12-11T10:00:04.211Z,101110.72
2022-12-11T10:02:46.838Z,101111.59
2022-12-11T10:05:21.755Z,101111.34
2022-12-11T10:07:54.188Z,101106.00
2022-12-11T10:10:34.640Z,101112.72
2022-12-11T10:13:22.488Z,101103.97
2022-12-11T10:15:54.728Z,101110.69
2022-12-11T10:18:26.415Z,101097.09
2022-12-11T10:20:54.306Z,101110.28
2022-12-11T10:23:25.442Z,101100.84
2022-12-11T10:25:57.456Z,101106.88
2022-12-11T10:28:28.805Z,101098.03
2022-12-11T10:31:02.328Z,101100.47
2022-12-11T10:33:46.706Z,101102.91
2022-12-11T10:36:20.939Z,101094.00
2022-12-11T10:38:47.926Z,101100.16
2022-12-11T10:41:21.050Z,101098.03
2022-12-11T10:43:49.965Z,101089.50
2022-12-11T10:46:19.799Z,101090.94
2022-12-11T10:48:49.330Z,101084.13
2022-12-11T10:51:16.823Z,101076.78
2022-12-11T10:53:49.475Z,101077.78
2022-12-11T10:56:24.839Z,101069.91
2022-12-11T10:58:52.773Z,101068.97
2022-12-11T11:01:23.254Z,101074.53
2022-12-11T11:03:59.035Z,101076.63
2022-12-11T11:06:27.094Z,101073.44
2022-12-11T11:08:55.863Z,101074.16
2022-12-11T11:11:29.788Z,101069.31
2022-12-11T11:17:15.303Z,101072.88
2022-12-11T11:19:47.602Z,101067.94
2022-12-11T11:22:17.365Z,101063.66
2022-12-11T11:24:44.990Z,101068.59
2022-12-11T11:27:14.023Z,101068.84
2022-12-11T11:29:41.570Z,101066.09
2022-12-11T11:32:18.799Z,101062.75
2022-12-11T11:34:47.164Z,101058.41
2022-12-11T11:37:26.177Z,101062.59
2022-12-11T11:39:57.872Z,101060.94
2022-12-11T11:42:34.945Z,101065.00
2022-12-11T11:45:05.682Z,101064.88
2022-12-11T11:47:41.381Z,101064.97
2022-12-11T11:50:19.684Z,101059.34
2022-12-11T11:52:55.952Z,101058.16
2022-12-11T11:55:32.921Z,101053.34
2022-12-11T11:58:07.415Z,101056.38
2022-12-11T12:00:34.835Z,101052.41
2022-12-11T12:03:08.769Z,101044.66
2022-12-11T12:05:42.417Z,101055.81
2022-12-11T12:08:17.153Z,101048.31
2022-12-11T12:10:51.283Z,101048.31
2022-12-11T12:13:49.167Z,101047.22
2022-12-11T12:16:51.685Z,101046.41
2022-12-11T12:19:16.098Z,101050.78
2022-12-11T12:21:51.260Z,101051.53
2022-12-11T12:24:29.789Z,101057.75
2022-12-11T12:27:02.631Z,101054.38
2022-12-11T12:29:43.453Z,101053.59
2022-12-11T12:32:25.303Z,101059.63
2022-12-11T12:35:06.617Z,101068.72
2022-12-11T12:37:47.804Z,101051.84
2022-12-11T12:40:23.745Z,101054.00
2022-12-11T12:42:58.505Z,101055.78
2022-12-11T12:45:28.805Z,101051.84
2022-12-11T12:47:55.696Z,101057.25
2022-12-11T12:50:25.838Z,101051.06
2022-12-11T12:52:55.364Z,101053.34
2022-12-11T12:55:26.065Z,101052.00
2022-12-11T12:57:55.916Z,101049.59
2022-12-11T13:00:28.126Z,101040.00
2022-12-11T13:02:56.276Z,101048.53
2022-12-11T13:05:26.093Z,101046.34
2022-12-11T13:07:56.991Z,101044.13
2022-12-11T13:10:28.883Z,101055.22
2022-12-11T13:12:56.972Z,101047.03
2022-12-11T13:15:30.625Z,101053.00
2022-12-11T13:17:58.379Z,101049.50
2022-12-11T13:20:27.567Z,101042.75
2022-12-11T13:23:15.859Z,101048.59
2022-12-11T13:25:53.125Z,101048.72
2022-12-11T13:28:29.548Z,101043.66
2022-12-11T13:30:58.647Z,101041.78
2022-12-11T13:33:26.203Z,101044.50
2022-12-11T13:36:36.112Z,101055.09
2022-12-11T13:39:07.990Z,101050.69
2022-12-11T13:41:38.338Z,101052.59
2022-12-11T13:44:07.338Z,101057.81
2022-12-11T13:46:38.004Z,101053.88
2022-12-11T13:49:07.084Z,101053.22
2022-12-11T13:51:36.210Z,101056.25
2022-12-11T13:54:17.353Z,101040.63
2022-12-11T13:56:55.800Z,101055.97
2022-12-11T13:59:27.191Z,101042.84
2022-12-11T14:01:57.194Z,101053.63
2022-12-11T14:04:25.591Z,101048.63
2022-12-11T14:06:52.472Z,101047.97
2022-12-11T14:09:23.750Z,101048.22
2022-12-11T14:11:56.606Z,101053.69
2022-12-11T14:14:30.869Z,101049.44
2022-12-11T14:16:57.939Z,101051.31
2022-12-11T14:19:25.291Z,101052.28
2022-12-11T14:21:57.807Z,101053.31
2022-12-11T14:24:26.269Z,101047.44
2022-12-11T14:26:54.238Z,101046.72
2022-12-11T14:29:26.880Z,101051.22
2022-12-11T14:31:55.124Z,101062.66
2022-12-11T14:34:25.907Z,101050.72
2022-12-11T14:36:54.914Z,101053.50
2022-12-11T14:39:30.174Z,101059.91
2022-12-11T14:42:02.810Z,101063.69
2022-12-11T14:44:33.686Z,101059.59
2022-12-11T14:47:04.527Z,101062.31
2022-12-11T14:49:39.189Z,101066.00
2022-12-11T14:52:13.977Z,101060.13
2022-12-11T14:54:46.236Z,101060.34
2022-12-11T14:57:20.497Z,101061.44
2022-12-11T14:59:49.745Z,101061.56
2022-12-11T15:02:35.692Z,101066.16
2022-12-11T15:05:13.298Z,101076.78
2022-12-11T15:07:43.794Z,101075.03
2022-12-11T15:10:32.497Z,101073.94
2022-12-11T15:12:59.956Z,101075.59
2022-12-11T15:15:30.391Z,101074.69
2022-12-11T15:17:57.809Z,101073.91
2022-12-11T15:20:27.944Z,101072.94
2022-12-11T15:22:58.802Z,101078.03
2022-12-11T15:25:29.517Z,101065.88
2022-12-11T15:27:58.674Z,101070.16
2022-12-11T15:30:28.979Z,101070.19
2022-12-11T15:33:18.482Z,101073.03
2022-12-11T15:35:55.475Z,101067.28
2022-12-11T15:38:35.419Z,101072.75
2022-12-11T15:41:03.945Z,101073.81
2022-12-11T15:43:35.011Z,101070.53
2022-12-11T15:46:02.010Z,101075.00
2022-12-11T15:48:29.208Z,101072.66
2022-12-11T15:50:56.173Z,101077.97
2022-12-11T15:53:23.056Z,101081.69
2022-12-11T15:55:50.649Z,101084.50
2022-12-11T15:58:21.391Z,101078.47
2022-12-11T16:00:48.256Z,101084.53
2022-12-11T16:03:18.086Z,101084.44
2022-12-11T16:05:45.228Z,101079.84
2022-12-11T16:08:15.331Z,101080.50
2022-12-11T16:10:43.508Z,101086.44
2022-12-11T16:13:10.988Z,101082.91
2022-12-11T16:15:41.678Z,101090.66
2022-12-11T16:18:10.760Z,101085.44
2022-12-11T16:20:39.295Z,101084.50
2022-12-11T16:23:06.147Z,101094.88
2022-12-11T16:25:33.609Z,101088.47
2022-12-11T16:28:01.830Z,101088.38
2022-12-11T16:30:29.582Z,101085.69
2022-12-11T16:33:00.536Z,101083.84
2022-12-11T16:35:29.218Z,101083.91
2022-12-11T16:37:56.392Z,101085.63
2022-12-11T16:40:24.102Z,101091.63
2022-12-11T16:42:51.371Z,101096.66
2022-12-11T16:45:21.074Z,101090.28
2022-12-11T16:47:48.832Z,101095.25
2022-12-11T16:50:17.826Z,101095.06
2022-12-11T16:52:46.083Z,101097.41
2022-12-11T16:55:13.944Z,101083.44
2022-12-11T16:57:41.950Z,101091.22
2022-12-11T17:00:12.698Z,101088.50
2022-12-11T17:02:42.529Z,101086.53
2022-12-11T17:05:09.844Z,101090.84
2022-12-11T17:07:39.170Z,101088.91
2022-12-11T17:10:07.656Z,101084.44
2022-12-11T17:12:34.736Z,101090.50
2022-12-11T17:15:02.033Z,101092.13
2022-12-11T17:17:28.872Z,101092.34
2022-12-11T17:19:56.604Z,101096.50
2022-12-11T17:22:23.658Z,101094.78
2022-12-11T17:24:52.017Z,101087.81
2022-12-11T17:27:19.010Z,101090.28
2022-12-11T17:29:47.392Z,101091.00
2022-12-11T17:32:14.232Z,101086.63
2022-12-11T17:34:41.101Z,101086.53
2022-12-11T17:37:07.949Z,101087.41
2022-12-11T17:39:34.838Z,101092.63
2022-12-11T17:42:03.155Z,101068.50
2022-12-11T17:44:31.210Z,101090.66
2022-12-11T17:46:58.440Z,101081.00
2022-12-11T17:49:25.657Z,101083.63
2022-12-11T17:51:55.531Z,101086.16
2022-12-11T17:54:24.112Z,101083.63
2022-12-11T17:56:51.065Z,101087.03
2022-12-11T17:59:19.292Z,101094.09
2022-12-11T18:01:46.390Z,101091.38
2022-12-11T18:04:13.626Z,101083.53
2022-12-11T18:06:40.490Z,101087.84
2022-12-11T18:09:07.561Z,101088.75
2022-12-11T18:11:34.849Z,101095.78
2022-12-11T18:14:01.895Z,101085.41
2022-12-11T18:17:03.683Z,101095.88
2022-12-11T18:19:30.676Z,101084.47
2022-12-11T18:21:58.009Z,101095.94
2022-12-11T18:24:31.635Z,101099.44
2022-12-11T18:26:58.937Z,101095.16
2022-12-11T18:29:26.953Z,101099.47
2022-12-11T18:31:53.915Z,101097.63
2022-12-11T18:34:22.245Z,101095.09
2022-12-11T18:36:49.959Z,101096.84
2022-12-11T18:39:16.711Z,101093.44
2022-12-11T18:41:43.611Z,101102.25
2022-12-11T18:44:10.427Z,101071.09
2022-12-11T18:46:37.629Z,101093.44
2022-12-11T18:49:04.537Z,101111.78
2022-12-11T18:51:35.236Z,101100.59
2022-12-11T18:54:02.182Z,101116.16
2022-12-11T18:56:28.993Z,101101.31
2022-12-11T18:58:56.045Z,101106.53
2022-12-11T19:01:24.526Z,101104.00
2022-12-11T19:03:55.352Z,101102.97
2022-12-11T19:06:28.931Z,101101.41
2022-12-11T19:08:57.797Z,101091.81
2022-12-11T19:11:27.113Z,101090.03
2022-12-11T19:13:56.753Z,101095.34
2022-12-11T19:16:26.366Z,101095.28
2022-12-11T19:18:54.383Z,101090.81
2022-12-11T19:21:21.563Z,101096.25
2022-12-11T19:23:48.833Z,101094.59
2022-12-11T19:26:19.482Z,101105.91
2022-12-11T19:28:48.376Z,101099.81
2022-12-11T19:31:20.169Z,101105.00
2022-12-11T19:33:47.288Z,101105.00
2022-12-11T19:36:16.587Z,101098.78
2022-12-11T19:38:45.395Z,101104.00
2022-12-11T19:41:15.493Z,101102.25
2022-12-11T19:43:50.254Z,101102.22
2022-12-11T19:46:18.419Z,101106.53
2022-12-11T19:48:45.629Z,101104.66
2022-12-11T19:51:14.416Z,101111.88
2022-12-11T19:53:42.384Z,101107.47
2022-12-11T19:56:10.367Z,101120.56
2022-12-11T19:58:37.611Z,101115.34
2022-12-11T20:01:07.396Z,101107.53
2022-12-11T20:03:34.836Z,101115.38
2022-12-11T20:06:04.332Z,101117.25
2022-12-11T20:08:47.221Z,101117.22
2022-12-11T20:11:18.465Z,101113.81
2022-12-11T20:13:46.205Z,101119.03
2022-12-11T20:16:15.680Z,101120.72
2022-12-11T20:18:42.786Z,101100.88
2022-12-11T20:21:13.125Z,101124.25
2022-12-11T20:23:42.170Z,101126.91
2022-12-11T20:26:10.346Z,101123.66
2022-12-11T20:28:37.374Z,101128.03
2022-12-11T20:31:05.325Z,101122.00
2022-12-11T20:33:33.990Z,101123.88
2022-12-11T20:36:01.492Z,101124.75
2022-12-11T20:38:34.095Z,101127.44
2022-12-11T20:41:01.382Z,101130.16
2022-12-11T20:43:28.415Z,101132.75
2022-12-11T20:45:55.234Z,101127.44
2022-12-11T20:48:22.474Z,101129.91
2022-12-11T20:50:50.809Z,101122.88
2022-12-11T20:53:17.958Z,101128.97
2022-12-11T20:55:45.326Z,101123.06
2022-12-11T20:58:12.444Z,101121.31
2022-12-11T21:00:40.340Z,101133.53
2022-12-11T21:03:07.644Z,101133.63
2022-12-11T21:05:34.678Z,101140.56
2022-12-11T21:08:03.163Z,101135.44
2022-12-11T21:10:30.053Z,101128.31
2022-12-11T21:12:56.938Z,101128.38
2022-12-11T21:15:24.386Z,101135.28
2022-12-11T21:17:52.475Z,101137.84
2022-12-11T21:20:19.693Z,101137.03
2022-12-11T21:22:46.712Z,101139.75
2022-12-11T21:25:14.981Z,101143.31
2022-12-11T21:27:41.948Z,101149.25
2022-12-11T21:30:09.690Z,101145.78
2022-12-11T21:32:36.727Z,101139.81
2022-12-11T21:35:03.996Z,101140.69
2022-12-11T21:37:30.874Z,101146.84
2022-12-11T21:39:58.200Z,101142.47
2022-12-11T21:42:27.856Z,101146.84
2022-12-11T21:47:41.727Z,101149.53
2022-12-11T21:50:08.750Z,101151.34
2022-12-11T21:52:37.691Z,101148.75
2022-12-11T21:55:05.474Z,101146.28
2022-12-11T21:57:34.060Z,101160.19
2022-12-11T22:00:02.058Z,101156.75
2022-12-11T22:02:41.132Z,101160.19
2022-12-11T22:05:09.341Z,101162.81
2022-12-11T22:07:36.377Z,101160.25
2022-12-11T22:10:03.517Z,101163.94
2022-12-11T22:12:30.404Z,101161.38
2022-12-11T22:14:58.627Z,101152.75
2022-12-11T22:17:25.513Z,101152.03
2022-12-11T22:19:52.332Z,101156.56
2022-12-11T22:22:19.341Z,101164.25
2022-12-11T22:24:46.394Z,101162.66
2022-12-11T22:27:13.291Z,101165.28
2022-12-11T22:29:40.241Z,101162.81
2022-12-11T22:32:08.561Z,101163.78
2022-12-11T22:34:35.283Z,101168.13
2022-12-11T22:37:02.064Z,101173.44
2022-12-11T22:39:28.922Z,101169.94
2022-12-11T22:41:55.710Z,101169.94
2022-12-11T22:44:22.609Z,101176.88
2022-12-11T22:46:50.566Z,101172.66
2022-12-11T22:49:21.491Z,101182.41
2022-12-11T22:51:50.121Z,101173.69
2022-12-11T22:54:17.097Z,101186.78
2022-12-11T22:56:43.952Z,101182.41
2022-12-11T22:59:10.887Z,101188.44
2022-12-11T23:01:37.720Z,101184.06
2022-12-11T23:04:05.053Z,101185.75
2022-12-11T23:06:33.344Z,101181.38
2022-12-11T23:09:01.305Z,101175.28
2022-12-11T23:11:30.447Z,101173.63
2022-12-11T23:13:57.688Z,101179.75
2022-12-11T23:16:26.394Z,101172.91
2022-12-11T23:18:54.199Z,101174.72
2022-12-11T23:21:21.902Z,101169.69
2022-12-11T23:23:50.720Z,101175.81
2022-12-11T23:26:18.958Z,101176.81
2022-12-11T23:28:46.470Z,101174.19
2022-12-11T23:31:14.104Z,101175.94
2022-12-11T23:33:41.301Z,101175.09
2022-12-11T23:36:09.190Z,101182.91
2022-12-11T23:38:36.490Z,101176.84
2022-12-11T23:41:06.402Z,101185.38
2022-12-11T23:43:34.267Z,101186.06
2022-12-11T23:46:01.317Z,101179.94
2022-12-11T23:48:28.273Z,101183.28
2022-12-11T23:50:58.929Z,101187.72
2022-12-11T23:53:26.097Z,101187.78
2022-12-11T23:55:53.243Z,101184.28
2022-12-11T23:58:22.496Z,101181.53
